createdAt,value
2022-08-31T00:00:35.595Z,91.32
2022-08-31T00:03:22.150Z,91.94
2022-08-31T00:05:49.998Z,91.93
2022-08-31T00:08:17.362Z,92.75
2022-08-31T00:10:46.585Z,91.72
2022-08-31T00:13:15.183Z,91.56
2022-08-31T00:15:43.349Z,91.96
2022-08-31T00:18:10.951Z,92.04
2022-08-31T00:20:38.775Z,92.61
2022-08-31T00:23:08.849Z,92.83
2022-08-31T00:25:40.020Z,93.39
2022-08-31T00:28:09.631Z,92.75
2022-08-31T00:30:38.252Z,92.92
2022-08-31T00:33:06.596Z,93.45
2022-08-31T00:35:36.626Z,92.84
2022-08-31T00:38:05.639Z,92.29
2022-08-31T00:40:44.208Z,93.25
2022-08-31T00:43:59.984Z,92.55
2022-08-31T00:46:33.869Z,92.77
2022-08-31T00:49:13.187Z,90.14
2022-08-31T00:51:46.018Z,90.36
2022-08-31T00:54:18.779Z,87.17
2022-08-31T00:56:46.645Z,86.85
2022-08-31T00:59:16.366Z,85.03
2022-08-31T01:01:44.330Z,84.04
2022-08-31T01:04:12.181Z,83.44
2022-08-31T01:06:40.378Z,85.04
2022-08-31T01:09:08.968Z,84.80
2022-08-31T01:11:38.615Z,85.29
2022-08-31T01:14:08.347Z,84.30
2022-08-31T01:16:53.345Z,84.44
2022-08-31T01:19:32.954Z,84.63
2022-08-31T01:22:15.681Z,84.44
2022-08-31T01:24:46.215Z,83.96
2022-08-31T01:27:18.220Z,82.29
2022-08-31T01:29:46.938Z,82.06
2022-08-31T01:32:14.475Z,82.38
2022-08-31T01:34:42.295Z,82.02
2022-08-31T01:37:10.733Z,82.06
2022-08-31T01:39:40.332Z,82.73
2022-08-31T01:42:07.858Z,81.78
2022-08-31T01:44:35.356Z,81.96
2022-08-31T01:47:03.062Z,81.43
2022-08-31T01:49:30.601Z,81.40
2022-08-31T01:51:58.079Z,81.66
2022-08-31T01:54:27.690Z,80.55
2022-08-31T01:56:56.183Z,80.44
2022-08-31T01:59:32.197Z,80.14
2022-08-31T02:02:07.881Z,78.84
2022-08-31T02:04:37.366Z,78.59
2022-08-31T02:07:04.879Z,79.19
2022-08-31T02:09:34.128Z,78.10
2022-08-31T02:12:01.553Z,79.42
2022-08-31T02:14:29.169Z,77.37
2022-08-31T02:16:56.945Z,77.07
2022-08-31T02:19:24.390Z,77.14
2022-08-31T02:21:51.798Z,77.23
2022-08-31T02:24:19.218Z,77.03
2022-08-31T02:26:49.432Z,75.28
2022-08-31T02:29:21.763Z,76.80
2022-08-31T02:31:49.395Z,76.94
2022-08-31T02:34:17.428Z,77.02
2022-08-31T02:36:45.592Z,77.55
2022-08-31T02:39:15.510Z,78.09
2022-08-31T02:41:44.372Z,79.33
2022-08-31T02:44:12.057Z,79.37
2022-08-31T02:46:39.921Z,80.85
2022-08-31T02:49:26.906Z,80.87
2022-08-31T02:51:55.133Z,81.00
2022-08-31T02:54:22.832Z,82.08
2022-08-31T02:56:52.478Z,82.92
2022-08-31T02:59:21.082Z,83.60
2022-08-31T03:01:50.045Z,83.58
2022-08-31T03:04:18.082Z,83.93
2022-08-31T03:06:47.955Z,83.94
2022-08-31T03:09:16.470Z,84.86
2022-08-31T03:11:44.574Z,85.16
2022-08-31T03:14:12.593Z,85.82
2022-08-31T03:16:41.614Z,85.38
2022-08-31T03:19:10.871Z,84.57
2022-08-31T03:21:39.061Z,84.90
2022-08-31T03:24:07.288Z,85.91
2022-08-31T03:26:35.016Z,84.38
2022-08-31T03:29:03.696Z,79.46
2022-08-31T03:31:37.819Z,79.14
2022-08-31T03:34:05.778Z,79.55
2022-08-31T03:36:33.936Z,78.95
2022-08-31T03:39:02.090Z,79.56
2022-08-31T03:41:30.798Z,80.44
2022-08-31T03:44:01.838Z,80.39
2022-08-31T03:46:33.607Z,80.00
2022-08-31T03:49:04.030Z,79.36
2022-08-31T03:51:33.447Z,79.66
2022-08-31T03:54:03.001Z,80.60
2022-08-31T03:56:33.539Z,80.78
2022-08-31T03:59:01.200Z,80.90
2022-08-31T04:01:54.677Z,80.99
2022-08-31T04:04:52.754Z,79.35
2022-08-31T04:07:52.906Z,79.33
2022-08-31T04:10:40.223Z,78.32
2022-08-31T04:13:30.069Z,78.60
2022-08-31T04:16:15.075Z,80.87
2022-08-31T04:19:01.800Z,80.28
2022-08-31T04:21:34.423Z,81.52
2022-08-31T04:24:02.606Z,81.26
2022-08-31T04:26:37.424Z,81.36
2022-08-31T04:29:12.231Z,83.04
2022-08-31T04:31:40.954Z,84.02
2022-08-31T04:34:08.553Z,84.40
2022-08-31T04:36:37.506Z,84.12
2022-08-31T04:39:07.478Z,83.36
2022-08-31T04:41:37.827Z,84.18
2022-08-31T04:44:06.518Z,84.23
2022-08-31T04:46:36.756Z,84.84
2022-08-31T04:49:04.724Z,85.23
2022-08-31T04:51:34.642Z,85.56
2022-08-31T04:54:05.386Z,85.33
2022-08-31T04:56:35.275Z,85.66
2022-08-31T04:59:08.007Z,86.29
2022-08-31T05:01:45.392Z,86.43
2022-08-31T05:04:39.021Z,85.78
2022-08-31T05:07:06.594Z,85.78
2022-08-31T05:09:34.259Z,85.78
2022-08-31T05:12:02.922Z,86.10
2022-08-31T05:14:30.399Z,86.29
2022-08-31T05:17:06.318Z,86.79
2022-08-31T05:19:42.885Z,86.69
2022-08-31T05:22:12.187Z,86.25
2022-08-31T05:24:42.161Z,86.42
2022-08-31T05:27:09.811Z,86.42
2022-08-31T05:29:37.184Z,86.89
2022-08-31T05:32:23.184Z,86.79
2022-08-31T05:34:53.981Z,86.91
2022-08-31T05:37:21.561Z,87.14
2022-08-31T05:39:52.186Z,86.42
2022-08-31T05:42:21.174Z,86.08
2022-08-31T05:44:48.743Z,86.73
2022-08-31T05:47:17.052Z,86.86
2022-08-31T05:49:45.050Z,86.20
2022-08-31T05:52:17.003Z,86.05
2022-08-31T05:54:44.689Z,84.26
2022-08-31T05:57:12.424Z,83.83
2022-08-31T05:59:40.209Z,83.53
2022-08-31T06:02:11.210Z,83.90
2022-08-31T06:04:39.539Z,84.35
2022-08-31T06:07:07.285Z,83.96
2022-08-31T06:09:43.826Z,84.24
2022-08-31T06:12:17.605Z,83.78
2022-08-31T06:14:47.924Z,83.76
2022-08-31T06:17:17.659Z,83.91
2022-08-31T06:19:45.196Z,82.59
2022-08-31T06:22:12.657Z,83.30
2022-08-31T06:24:40.059Z,82.11
2022-08-31T06:27:07.465Z,81.17
2022-08-31T06:29:37.282Z,81.01
2022-08-31T06:32:10.146Z,80.98
2022-08-31T06:34:48.971Z,82.00
2022-08-31T06:37:35.295Z,81.94
2022-08-31T06:40:26.941Z,81.43
2022-08-31T06:43:30.124Z,78.75
2022-08-31T06:46:00.466Z,78.31
2022-08-31T06:48:34.507Z,78.29
2022-08-31T06:51:02.617Z,79.54
2022-08-31T06:53:30.306Z,81.07
2022-08-31T06:56:20.936Z,81.13
2022-08-31T06:59:07.611Z,80.18
2022-08-31T07:01:53.899Z,80.61
2022-08-31T07:04:32.614Z,79.89
2022-08-31T07:07:00.226Z,76.96
2022-08-31T07:09:28.149Z,74.72
2022-08-31T07:21:01.426Z,74.37
2022-08-31T07:23:56.620Z,75.10
2022-08-31T07:26:46.437Z,74.80
2022-08-31T07:29:18.575Z,73.41
2022-08-31T07:31:49.007Z,71.44
2022-08-31T07:34:27.968Z,71.82
2022-08-31T07:37:52.460Z,72.55
2022-08-31T07:40:43.227Z,71.94
2022-08-31T07:43:13.504Z,67.73
2022-08-31T07:45:42.152Z,65.96
2022-08-31T07:48:15.338Z,63.14
2022-08-31T07:51:17.960Z,61.69
2022-08-31T07:53:53.627Z,61.25
2022-08-31T07:56:26.294Z,61.91
2022-08-31T07:59:11.346Z,62.19
2022-08-31T08:01:41.295Z,61.59
2022-08-31T08:04:15.131Z,63.52
2022-08-31T08:07:05.883Z,63.39
2022-08-31T08:10:14.264Z,64.82
2022-08-31T08:13:05.711Z,66.24
2022-08-31T08:15:46.298Z,66.95
2022-08-31T08:18:14.037Z,67.74
2022-08-31T08:20:49.600Z,65.26
2022-08-31T08:23:27.850Z,66.48
2022-08-31T08:26:21.696Z,65.76
2022-08-31T08:29:09.391Z,68.44
2022-08-31T08:31:43.900Z,67.95
2022-08-31T08:34:11.514Z,66.26
2022-08-31T08:36:40.845Z,64.13
2022-08-31T08:39:10.038Z,64.25
2022-08-31T08:41:44.227Z,60.40
2022-08-31T08:44:18.092Z,58.99
2022-08-31T08:46:52.816Z,58.35
2022-08-31T08:49:25.310Z,56.72
2022-08-31T08:51:59.451Z,56.75
2022-08-31T08:54:35.593Z,58.54
2022-08-31T08:57:22.471Z,57.70
2022-08-31T08:59:59.309Z,56.16
2022-08-31T09:02:49.905Z,56.75
2022-08-31T09:05:26.117Z,55.99
2022-08-31T09:08:23.382Z,55.42
2022-08-31T09:11:28.053Z,54.24
2022-08-31T09:14:19.103Z,54.42
2022-08-31T09:17:18.564Z,55.49
2022-08-31T09:20:02.786Z,55.72
2022-08-31T09:22:52.491Z,56.44
2022-08-31T09:25:33.272Z,55.66
2022-08-31T09:28:49.548Z,54.96
2022-08-31T09:31:37.248Z,54.97
2022-08-31T09:34:13.918Z,55.72
2022-08-31T09:36:43.703Z,55.64
2022-08-31T09:39:21.633Z,56.24
2022-08-31T09:41:50.267Z,58.12
2022-08-31T09:44:34.369Z,58.72
2022-08-31T09:47:14.873Z,59.49
2022-08-31T09:49:59.065Z,57.65
2022-08-31T09:52:47.515Z,56.95
2022-08-31T09:55:19.795Z,59.20
2022-08-31T09:58:07.844Z,58.80
2022-08-31T10:00:42.615Z,59.62
2022-08-31T10:03:31.057Z,59.55
2022-08-31T10:06:02.176Z,60.64
2022-08-31T10:08:57.056Z,60.10
2022-08-31T10:11:33.637Z,59.72
2022-08-31T10:14:51.086Z,60.09
2022-08-31T10:17:26.212Z,60.66
2022-08-31T10:20:12.785Z,60.70
2022-08-31T10:22:43.874Z,59.97
2022-08-31T10:25:18.528Z,59.65
2022-08-31T10:27:50.478Z,59.23
2022-08-31T10:30:32.829Z,58.09
2022-08-31T10:33:22.316Z,56.92
2022-08-31T10:35:52.186Z,55.25
2022-08-31T10:38:40.136Z,56.01
2022-08-31T10:41:26.202Z,56.19
2022-08-31T10:44:01.672Z,56.18
2022-08-31T10:46:31.225Z,54.10
2022-08-31T10:48:59.693Z,53.05
2022-08-31T10:51:53.208Z,51.50
2022-08-31T10:54:49.601Z,50.53
2022-08-31T10:57:56.726Z,51.23
2022-08-31T11:00:48.881Z,52.86
2022-08-31T11:03:28.939Z,52.57
2022-08-31T11:06:02.480Z,52.43
2022-08-31T11:08:30.302Z,53.53
2022-08-31T11:10:59.412Z,53.94
2022-08-31T11:14:00.315Z,52.94
2022-08-31T11:16:43.686Z,52.22
2022-08-31T11:19:26.411Z,53.36
2022-08-31T11:22:02.898Z,54.24
2022-08-31T11:24:49.194Z,52.79
2022-08-31T11:27:19.174Z,52.84
2022-08-31T11:29:59.063Z,51.80
2022-08-31T11:32:35.950Z,53.10
2022-08-31T11:35:09.952Z,53.63
2022-08-31T11:37:52.849Z,53.77
2022-08-31T11:40:45.005Z,53.70
2022-08-31T11:43:14.501Z,53.86
2022-08-31T11:45:43.303Z,55.05
2022-08-31T11:48:56.665Z,54.10
2022-08-31T11:51:36.067Z,53.47
2022-08-31T11:54:14.812Z,55.18
2022-08-31T11:56:47.468Z,53.24
2022-08-31T11:59:38.309Z,54.20
2022-08-31T12:02:24.140Z,53.11
2022-08-31T12:05:16.328Z,53.47
2022-08-31T12:07:52.882Z,54.80
2022-08-31T12:10:56.059Z,53.46
2022-08-31T12:14:13.532Z,53.85
2022-08-31T12:16:57.837Z,54.39
2022-08-31T12:20:01.291Z,54.18
2022-08-31T12:23:30.069Z,54.44
2022-08-31T12:30:59.398Z,53.46
2022-08-31T12:34:00.916Z,53.42
2022-08-31T12:36:35.916Z,52.88
2022-08-31T12:39:59.359Z,53.97
2022-08-31T12:42:37.128Z,54.89
2022-08-31T12:45:09.355Z,53.36
2022-08-31T12:48:57.821Z,54.53
2022-08-31T12:51:42.637Z,53.03
2022-08-31T12:55:26.962Z,53.76
2022-08-31T13:03:31.748Z,51.92
2022-08-31T13:10:26.163Z,51.67
2022-08-31T13:12:56.579Z,52.52
2022-08-31T13:15:35.061Z,52.17
2022-08-31T13:18:15.963Z,51.10
2022-08-31T13:20:44.911Z,50.74
2022-08-31T13:23:16.090Z,51.24
2022-08-31T13:25:48.435Z,51.18
2022-08-31T13:28:22.216Z,53.14
2022-08-31T13:31:03.287Z,52.30
2022-08-31T13:33:32.785Z,51.33
2022-08-31T13:36:32.246Z,50.78
2022-08-31T13:39:16.156Z,50.92
2022-08-31T13:41:57.910Z,50.22
2022-08-31T13:44:27.833Z,49.99
2022-08-31T13:47:02.960Z,51.06
2022-08-31T13:49:35.741Z,50.36
2022-08-31T13:52:13.954Z,49.43
2022-08-31T13:54:41.505Z,49.05
2022-08-31T13:57:35.066Z,49.17
2022-08-31T14:00:41.927Z,48.79
2022-08-31T14:03:32.077Z,48.93
2022-08-31T14:06:24.132Z,50.06
2022-08-31T14:09:03.417Z,49.71
2022-08-31T14:11:32.347Z,51.10
2022-08-31T14:14:11.376Z,50.21
2022-08-31T14:16:43.669Z,51.01
2022-08-31T14:19:29.589Z,50.08
2022-08-31T14:22:15.149Z,50.52
2022-08-31T14:24:44.155Z,50.90
2022-08-31T14:27:12.396Z,51.63
2022-08-31T14:29:42.037Z,52.33
2022-08-31T14:32:09.430Z,51.69
2022-08-31T14:34:49.275Z,52.99
2022-08-31T14:37:22.486Z,52.15
2022-08-31T14:40:04.304Z,52.77
2022-08-31T14:42:37.947Z,52.48
2022-08-31T14:45:12.542Z,53.52
2022-08-31T14:47:44.149Z,54.89
2022-08-31T14:50:16.571Z,53.53
2022-08-31T14:52:52.906Z,55.06
2022-08-31T14:55:22.605Z,53.21
2022-08-31T14:58:01.581Z,54.08
2022-08-31T15:00:43.897Z,54.77
2022-08-31T15:03:15.044Z,54.22
2022-08-31T15:05:43.406Z,54.50
2022-08-31T15:08:11.332Z,53.41
2022-08-31T15:10:41.111Z,53.67
2022-08-31T15:13:08.714Z,54.12
2022-08-31T15:15:36.142Z,55.61
2022-08-31T15:18:04.439Z,55.25
2022-08-31T15:20:36.198Z,55.57
2022-08-31T15:23:04.215Z,53.18
2022-08-31T15:25:31.699Z,54.82
2022-08-31T15:27:59.621Z,53.32
2022-08-31T15:30:28.152Z,53.72
2022-08-31T15:32:58.861Z,53.87
2022-08-31T15:35:26.527Z,53.97
2022-08-31T15:37:58.952Z,55.41
2022-08-31T15:40:29.066Z,55.77
2022-08-31T15:42:57.187Z,55.89
2022-08-31T15:45:29.827Z,55.87
2022-08-31T15:48:16.990Z,54.52
2022-08-31T15:50:53.731Z,53.55
2022-08-31T15:53:30.244Z,52.69
2022-08-31T15:56:05.700Z,53.37
2022-08-31T15:58:33.710Z,50.76
2022-08-31T16:01:01.359Z,51.15
2022-08-31T16:03:35.296Z,50.94
2022-08-31T16:06:04.195Z,50.88
2022-08-31T16:08:31.645Z,52.22
2022-08-31T16:10:59.117Z,53.79
2022-08-31T16:13:26.459Z,54.93
2022-08-31T16:15:53.917Z,53.57
2022-08-31T16:18:22.324Z,52.40
2022-08-31T16:20:51.787Z,51.70
2022-08-31T16:23:21.044Z,53.49
2022-08-31T16:25:49.460Z,54.62
2022-08-31T16:28:19.799Z,55.75
2022-08-31T16:30:47.552Z,55.29
2022-08-31T16:33:15.004Z,55.66
2022-08-31T16:35:44.684Z,55.17
2022-08-31T16:38:13.290Z,54.78
2022-08-31T16:40:41.790Z,57.24
2022-08-31T16:43:09.883Z,57.46
2022-08-31T16:45:41.309Z,59.16
2022-08-31T16:48:29.665Z,60.10
2022-08-31T16:50:59.757Z,60.83
2022-08-31T16:53:28.605Z,60.56
2022-08-31T16:55:57.615Z,59.71
2022-08-31T16:58:48.094Z,57.72
2022-08-31T17:01:15.061Z,58.68
2022-08-31T17:03:48.160Z,59.83
2022-08-31T17:06:17.137Z,59.47
2022-08-31T17:08:45.551Z,61.60
2022-08-31T17:11:16.789Z,62.55
2022-08-31T17:13:47.330Z,64.15
2022-08-31T17:16:21.332Z,64.78
2022-08-31T17:18:51.528Z,65.43
2022-08-31T17:21:21.898Z,65.54
2022-08-31T17:23:51.387Z,66.15
2022-08-31T17:26:19.450Z,65.69
2022-08-31T17:28:52.965Z,65.62
2022-08-31T17:31:20.658Z,65.64
2022-08-31T17:33:48.020Z,66.25
2022-08-31T17:36:18.886Z,65.58
2022-08-31T17:38:49.863Z,65.21
2022-08-31T17:41:17.690Z,65.70
2022-08-31T17:45:07.811Z,65.71
2022-08-31T17:46:53.854Z,64.65
2022-08-31T17:49:24.145Z,65.35
2022-08-31T17:51:53.083Z,64.93
2022-08-31T17:54:23.812Z,65.08
2022-08-31T17:56:55.979Z,65.14
2022-08-31T17:59:28.310Z,64.73
2022-08-31T18:01:58.238Z,65.20
2022-08-31T18:04:28.286Z,64.84
2022-08-31T18:06:56.886Z,64.59
2022-08-31T18:09:27.555Z,64.55
2022-08-31T18:11:55.618Z,64.69
2022-08-31T18:14:26.018Z,65.65
2022-08-31T18:16:55.543Z,65.36
2022-08-31T18:19:27.968Z,66.12
2022-08-31T18:21:56.937Z,65.79
2022-08-31T18:24:24.999Z,66.17
2022-08-31T18:26:52.997Z,67.42
2022-08-31T18:29:24.985Z,68.02
2022-08-31T18:31:56.675Z,69.01
2022-08-31T18:34:25.669Z,69.63
2022-08-31T18:36:55.361Z,70.15
2022-08-31T18:39:50.543Z,71.79
2022-08-31T18:42:35.781Z,75.51
2022-08-31T18:45:16.798Z,78.09
2022-08-31T18:50:49.469Z,83.32
2022-08-31T18:53:26.832Z,83.65
2022-08-31T18:55:58.289Z,84.60
2022-08-31T18:58:28.109Z,83.62
2022-08-31T19:00:58.299Z,83.41
2022-08-31T19:03:27.592Z,86.21
2022-08-31T19:05:56.903Z,85.23
2022-08-31T19:08:31.256Z,85.54
2022-08-31T19:11:01.809Z,84.40
2022-08-31T19:13:32.292Z,84.73
2022-08-31T19:16:03.599Z,84.27
2022-08-31T19:18:33.777Z,85.41
2022-08-31T19:21:25.570Z,87.44
2022-08-31T19:23:54.038Z,88.53
2022-08-31T19:26:32.088Z,87.86
2022-08-31T19:29:00.793Z,89.46
2022-08-31T19:31:30.174Z,89.01
2022-08-31T19:33:57.937Z,90.26
2022-08-31T19:36:29.674Z,90.54
2022-08-31T19:39:00.315Z,90.45
2022-08-31T19:41:28.336Z,90.56
2022-08-31T19:44:09.019Z,91.43
2022-08-31T19:46:41.960Z,91.31
2022-08-31T19:49:11.867Z,87.39
2022-08-31T19:51:42.778Z,90.00
2022-08-31T19:54:14.635Z,89.41
2022-08-31T19:56:45.539Z,89.76
2022-08-31T19:59:20.279Z,87.70
2022-08-31T20:01:52.345Z,88.97
2022-08-31T20:04:23.547Z,90.08
2022-08-31T20:06:52.964Z,89.58
2022-08-31T20:09:22.555Z,88.55
2022-08-31T20:11:53.409Z,87.71
2022-08-31T20:14:22.224Z,86.08
2022-08-31T20:16:51.637Z,86.87
2022-08-31T20:19:26.424Z,87.26
2022-08-31T20:22:00.083Z,87.06
2022-08-31T20:24:28.345Z,86.23
2022-08-31T20:27:09.367Z,87.84
2022-08-31T20:29:39.342Z,86.38
2022-08-31T20:32:09.414Z,87.29
2022-08-31T20:34:39.182Z,87.66
2022-08-31T20:37:10.274Z,88.10
2022-08-31T20:39:39.721Z,87.71
2022-08-31T20:42:07.773Z,86.89
2022-08-31T20:44:37.442Z,87.49
2022-08-31T20:47:27.561Z,87.92
2022-08-31T20:49:58.521Z,87.39
2022-08-31T20:52:29.254Z,87.71
2022-08-31T20:55:01.932Z,88.09
2022-08-31T20:57:32.248Z,87.75
2022-08-31T21:00:03.280Z,87.91
2022-08-31T21:02:34.367Z,88.54
2022-08-31T21:05:27.198Z,87.51
2022-08-31T21:07:52.326Z,87.97
2022-08-31T21:10:35.641Z,87.27
2022-08-31T21:13:09.545Z,87.95
2022-08-31T21:15:46.043Z,88.80
2022-08-31T21:18:18.123Z,87.22
2022-08-31T21:20:47.774Z,87.67
2022-08-31T21:23:15.719Z,87.73
2022-08-31T21:25:45.728Z,86.49
2022-08-31T21:28:17.842Z,87.51
2022-08-31T21:30:49.194Z,86.21
2022-08-31T21:33:16.908Z,86.68
2022-08-31T21:35:44.387Z,86.23
2022-08-31T21:38:13.354Z,85.73
2022-08-31T21:40:48.031Z,87.16
2022-08-31T21:43:15.839Z,86.82
2022-08-31T21:45:43.194Z,86.24
2022-08-31T21:48:10.845Z,86.20
2022-08-31T21:50:38.523Z,86.61
2022-08-31T21:53:05.877Z,86.03
2022-08-31T21:55:38.518Z,86.10
2022-08-31T21:58:05.995Z,85.66
2022-08-31T22:00:34.485Z,86.09
2022-08-31T22:03:02.250Z,86.11
2022-08-31T22:05:31.686Z,87.05
2022-08-31T22:07:59.187Z,86.38
2022-08-31T22:10:30.000Z,85.00
2022-08-31T22:12:58.466Z,84.70
2022-08-31T22:15:26.164Z,85.87
2022-08-31T22:18:18.052Z,87.37
2022-08-31T22:20:42.444Z,86.64
2022-08-31T22:23:10.843Z,86.23
2022-08-31T22:25:38.604Z,86.71
2022-08-31T22:28:07.387Z,86.24
2022-08-31T22:30:36.261Z,86.43
2022-08-31T22:33:04.381Z,85.80
2022-08-31T22:35:31.896Z,86.14
2022-08-31T22:37:59.305Z,85.29
2022-08-31T22:40:29.679Z,86.95
2022-08-31T22:42:58.589Z,86.38
2022-08-31T22:45:26.343Z,86.46
2022-08-31T22:47:53.962Z,85.99
2022-08-31T22:50:21.515Z,86.25
2022-08-31T22:52:48.980Z,85.63
2022-08-31T22:55:16.609Z,85.60
2022-08-31T22:57:44.156Z,85.88
2022-08-31T23:00:12.393Z,86.78
2022-08-31T23:02:45.224Z,85.32
2022-08-31T23:05:15.225Z,85.70
2022-08-31T23:07:43.064Z,84.99
2022-08-31T23:10:16.928Z,84.83
2022-08-31T23:12:47.259Z,87.13
2022-08-31T23:15:15.473Z,85.87
2022-08-31T23:17:46.262Z,85.79
2022-08-31T23:20:19.435Z,86.23
2022-08-31T23:22:48.663Z,85.43
2022-08-31T23:25:20.327Z,84.69
2022-08-31T23:27:49.507Z,83.80
2022-08-31T23:30:19.690Z,83.49
2022-08-31T23:32:47.942Z,84.37
2022-08-31T23:35:17.882Z,84.80
2022-08-31T23:37:46.298Z,85.56
2022-08-31T23:40:15.710Z,86.54
2022-08-31T23:42:43.574Z,87.26
2022-08-31T23:45:12.724Z,87.20
2022-08-31T23:47:40.720Z,87.35
2022-08-31T23:50:10.100Z,88.02
2022-08-31T23:52:41.564Z,88.89
2022-08-31T23:55:11.082Z,88.36
2022-08-31T23:57:39.625Z,88.41
